Time;durP1;ratioP1;P1;durP2;ratioP2;P2;SDS_P1;SDS_P2;PMS_P1;PMS_P2;Temp;Humidity;BMP_temperature;BMP_pressure;BME280_temperature;BME280_humidity;BME280_pressure;Samples;Min_cycle;Max_cycle;Signal;HPM_P1;HPM_P2
2020/12/14 00:01:34;;;;;;;6.07;1.75;;;7.60;99.90;;;;;;5051357;28;20382;-67
2020/12/14 00:04:00;;;;;;;7.53;2.15;;;7.70;99.90;;;;;;5069636;28;20055;-65
2020/12/14 00:06:26;;;;;;;5.20;1.75;;;7.70;99.90;;;;;;5069651;28;20471;-65
2020/12/14 00:08:51;;;;;;;3.90;1.30;;;7.70;99.90;;;;;;5069162;28;20082;-64
2020/12/14 00:11:16;;;;;;;5.65;1.40;;;7.80;99.90;;;;;;5070028;28;20035;-64
2020/12/14 00:13:42;;;;;;;7.30;1.60;;;7.80;99.90;;;;;;5060485;28;20089;-63
2020/12/14 00:16:08;;;;;;;4.82;1.60;;;7.90;99.90;;;;;;5069772;28;20569;-67
2020/12/14 00:18:34;;;;;;;3.00;1.45;;;7.90;99.90;;;;;;5070695;28;20424;-65
2020/12/14 00:21:00;;;;;;;3.72;1.38;;;8.00;99.90;;;;;;5071137;28;20052;-63
2020/12/14 00:23:25;;;;;;;3.50;1.25;;;8.00;99.90;;;;;;5052809;28;20055;-65
2020/12/14 00:25:51;;;;;;;2.33;0.90;;;8.10;99.90;;;;;;5070197;28;20020;-65
2020/12/14 00:28:16;;;;;;;5.88;1.42;;;8.10;99.90;;;;;;5070334;28;20429;-65
2020/12/14 00:30:42;;;;;;;3.17;1.10;;;8.10;99.90;;;;;;5073818;28;20029;-63
2020/12/14 00:33:07;;;;;;;2.97;1.17;;;8.10;99.90;;;;;;5070978;28;20032;-64
2020/12/14 00:35:33;;;;;;;7.55;1.52;;;8.10;99.90;;;;;;5073838;28;20843;-68
2020/12/14 00:37:58;;;;;;;3.47;0.95;;;8.10;99.90;;;;;;5065017;28;20525;-64
2020/12/14 00:40:24;;;;;;;5.05;1.40;;;8.20;99.90;;;;;;5073067;28;20099;-65
2020/12/14 00:42:49;;;;;;;1.88;1.02;;;8.20;99.90;;;;;;5072275;28;20029;-64
2020/12/14 00:45:15;;;;;;;2.22;1.75;;;8.20;99.90;;;;;;5070662;28;20033;-64
2020/12/14 00:47:40;;;;;;;4.18;1.33;;;8.20;99.90;;;;;;5073290;28;20555;-65
2020/12/14 00:50:06;;;;;;;2.88;1.48;;;8.20;99.90;;;;;;5071349;28;20036;-65
2020/12/14 00:52:31;;;;;;;5.97;1.45;;;8.20;99.90;;;;;;5073468;28;20025;-64
2020/12/14 00:54:57;;;;;;;4.93;1.40;;;8.20;99.90;;;;;;5069511;28;20020;-67
2020/12/14 00:57:22;;;;;;;2.67;1.55;;;8.20;99.90;;;;;;5073277;28;20032;-64
2020/12/14 00:59:48;;;;;;;10.77;1.30;;;8.30;99.90;;;;;;5071618;28;20020;-64
2020/12/14 01:02:13;;;;;;;4.50;2.00;;;8.20;99.90;;;;;;5067494;28;20460;-64
2020/12/14 01:04:39;;;;;;;5.53;1.60;;;8.20;99.90;;;;;;5064982;28;20024;-63
2020/12/14 01:07:04;;;;;;;3.45;1.13;;;8.30;99.90;;;;;;5072715;28;20029;-63
2020/12/14 01:09:30;;;;;;;6.38;1.40;;;8.30;99.90;;;;;;5075291;28;20017;-64
2020/12/14 01:11:55;;;;;;;4.32;1.40;;;8.30;99.90;;;;;;5075440;28;20028;-64
2020/12/14 01:14:21;;;;;;;4.18;1.20;;;8.30;99.90;;;;;;5075185;28;20107;-64
2020/12/14 01:16:47;;;;;;;1.70;0.95;;;8.30;99.90;;;;;;5074400;28;20098;-64
2020/12/14 01:19:13;;;;;;;8.98;1.40;;;8.30;99.90;;;;;;5065904;28;20024;-65
2020/12/14 01:21:38;;;;;;;5.10;1.20;;;8.30;99.90;;;;;;5068158;28;20048;-64
2020/12/14 01:24:04;;;;;;;7.35;1.48;;;8.30;99.90;;;;;;5075038;28;20052;-64
2020/12/14 01:26:31;;;;;;;5.47;1.45;;;8.30;99.90;;;;;;5073679;28;20085;-64
2020/12/14 01:28:56;;;;;;;3.70;1.35;;;8.30;99.90;;;;;;5052129;28;20023;-64
2020/12/14 01:31:23;;;;;;;4.78;1.50;;;8.30;99.90;;;;;;5076496;28;20021;-65
2020/12/14 01:33:48;;;;;;;5.95;1.48;;;8.20;99.90;;;;;;5070936;28;20048;-65
2020/12/14 01:36:14;;;;;;;3.88;1.73;;;8.30;99.90;;;;;;5075130;28;20047;-65
2020/12/14 01:38:39;;;;;;;3.92;1.25;;;8.20;99.90;;;;;;5074148;28;20413;-64
2020/12/14 01:41:05;;;;;;;3.20;1.50;;;8.20;99.90;;;;;;5070086;28;20035;-64
2020/12/14 01:43:31;;;;;;;4.55;1.60;;;8.10;99.90;;;;;;5072303;28;20032;-66
2020/12/14 01:45:56;;;;;;;3.63;1.75;;;8.10;99.90;;;;;;5062562;28;20433;-65
2020/12/14 01:48:24;;;;;;;1.85;1.52;;;8.10;99.90;;;;;;5072248;28;20083;-64
2020/12/14 01:50:51;;;;;;;5.18;2.65;;;8.10;99.90;;;;;;5072134;28;20020;-68
2020/12/14 01:53:18;;;;;;;9.23;2.13;;;8.10;99.90;;;;;;5071065;28;20027;-64
2020/12/14 01:55:44;;;;;;;8.90;2.33;;;8.00;99.90;;;;;;5072069;28;20024;-66
2020/12/14 01:58:10;;;;;;;8.55;2.20;;;8.00;99.90;;;;;;5062555;28;20044;-63
2020/12/14 02:00:36;;;;;;;3.25;1.95;;;8.00;99.90;;;;;;5065560;28;20024;-64
2020/12/14 02:03:02;;;;;;;4.28;1.77;;;8.00;99.90;;;;;;5071944;28;20061;-64
2020/12/14 02:05:28;;;;;;;4.05;1.77;;;8.00;99.90;;;;;;5070371;28;20048;-64
2020/12/14 02:07:53;;;;;;;3.40;1.65;;;8.00;99.90;;;;;;5069114;28;20056;-64
2020/12/14 02:10:19;;;;;;;5.10;2.00;;;8.00;99.90;;;;;;5071668;28;20036;-63
2020/12/14 02:12:44;;;;;;;6.75;2.22;;;8.10;99.90;;;;;;5067096;28;20032;-64
2020/12/14 02:15:10;;;;;;;5.32;2.17;;;8.00;99.90;;;;;;5070185;28;20040;-65
2020/12/14 02:17:35;;;;;;;3.83;2.10;;;8.00;99.90;;;;;;5071907;28;20032;-64
2020/12/14 02:20:02;;;;;;;5.55;2.30;;;8.00;99.90;;;;;;5071976;28;20078;-65
2020/12/14 02:22:28;;;;;;;7.25;2.40;;;7.90;99.90;;;;;;5072076;28;20039;-65
2020/12/14 02:25:00;;;;;;;7.60;2.97;;;8.00;99.90;;;;;;5071326;28;20028;-64
2020/12/14 02:27:28;;;;;;;4.65;2.65;;;7.90;99.90;;;;;;5058924;28;20394;-64
2020/12/14 02:29:55;;;;;;;11.68;3.22;;;7.90;99.90;;;;;;5071277;28;20041;-64
2020/12/14 02:32:22;;;;;;;4.88;2.92;;;7.90;99.90;;;;;;5073725;28;20363;-64
2020/12/14 02:34:48;;;;;;;12.45;3.78;;;7.90;99.90;;;;;;5071879;28;20022;-65
2020/12/14 02:37:16;;;;;;;6.85;3.17;;;7.90;99.90;;;;;;5052555;28;20043;-65
2020/12/14 02:39:42;;;;;;;6.45;3.78;;;7.80;99.90;;;;;;5070347;28;20078;-65
2020/12/14 02:42:10;;;;;;;7.70;3.70;;;7.90;99.90;;;;;;5070529;28;20036;-65
2020/12/14 02:44:36;;;;;;;9.10;3.38;;;7.90;99.90;;;;;;5063984;28;20108;-65
2020/12/14 02:47:02;;;;;;;4.80;3.92;;;7.80;99.90;;;;;;5070494;28;20116;-64
2020/12/14 02:49:27;;;;;;;5.10;3.28;;;7.90;99.90;;;;;;5070978;28;20032;-64
2020/12/14 02:51:53;;;;;;;6.57;3.88;;;7.90;99.90;;;;;;5070269;28;20033;-64
2020/12/14 02:54:18;;;;;;;9.68;4.97;;;7.90;99.90;;;;;;5053555;28;20048;-65
2020/12/14 02:56:44;;;;;;;10.27;4.65;;;7.80;99.90;;;;;;5058994;28;20561;-65
2020/12/14 02:59:14;;;;;;;5.78;4.25;;;7.80;99.90;;;;;;5069863;28;20040;-64
2020/12/14 03:01:40;;;;;;;7.53;4.57;;;7.80;99.90;;;;;;5069662;28;20024;-65
2020/12/14 03:04:06;;;;;;;6.82;4.40;;;7.90;99.90;;;;;;5067810;28;20028;-64
2020/12/14 03:06:32;;;;;;;10.23;4.80;;;7.80;99.90;;;;;;5051983;28;20025;-64
2020/12/14 03:08:57;;;;;;;11.40;5.15;;;7.90;99.90;;;;;;5069941;28;20033;-64
2020/12/14 03:11:23;;;;;;;9.90;4.90;;;7.90;99.90;;;;;;5071611;28;20044;-65
2020/12/14 03:13:49;;;;;;;7.43;4.28;;;7.90;99.90;;;;;;5071386;28;20020;-63
2020/12/14 03:16:15;;;;;;;7.47;5.18;;;7.80;99.90;;;;;;5070864;28;20040;-64
2020/12/14 03:18:40;;;;;;;5.15;4.65;;;7.90;99.90;;;;;;5070969;28;20032;-64
2020/12/14 03:21:07;;;;;;;5.78;4.45;;;7.80;99.90;;;;;;5069600;28;20516;-66
2020/12/14 03:23:33;;;;;;;10.73;4.78;;;7.90;99.90;;;;;;5071117;28;20052;-64
2020/12/14 03:25:59;;;;;;;9.13;4.80;;;7.80;99.90;;;;;;5070663;28;20375;-63
2020/12/14 03:28:24;;;;;;;7.88;4.72;;;7.90;99.90;;;;;;5069206;28;20028;-63
2020/12/14 03:30:50;;;;;;;8.27;4.75;;;7.90;99.90;;;;;;5052653;28;20016;-63
2020/12/14 03:33:16;;;;;;;8.00;4.55;;;7.90;99.90;;;;;;5056700;28;20031;-65
2020/12/14 03:35:42;;;;;;;7.22;5.45;;;7.90;99.90;;;;;;5070600;28;20028;-64
2020/12/14 03:38:07;;;;;;;8.40;5.30;;;7.90;99.90;;;;;;5065731;28;20103;-66
2020/12/14 03:40:33;;;;;;;14.70;5.00;;;7.90;99.90;;;;;;5057959;28;20104;-64
2020/12/14 03:42:58;;;;;;;8.02;4.90;;;7.90;99.90;;;;;;5070828;28;20060;-65
2020/12/14 03:45:24;;;;;;;11.18;5.97;;;7.90;99.90;;;;;;5040705;28;20029;-63
2020/12/14 03:47:49;;;;;;;7.25;5.38;;;8.00;99.90;;;;;;5070477;28;20081;-65
2020/12/14 03:50:15;;;;;;;9.90;5.63;;;8.00;99.90;;;;;;5069016;28;20081;-63
2020/12/14 03:52:40;;;;;;;13.77;6.50;;;8.00;99.90;;;;;;5069900;28;20025;-63
2020/12/14 03:55:06;;;;;;;11.18;6.47;;;8.00;99.90;;;;;;5060805;28;20024;-64
2020/12/14 03:57:31;;;;;;;11.55;5.70;;;8.00;99.90;;;;;;5067225;28;20024;-64
2020/12/14 03:59:57;;;;;;;8.90;5.97;;;8.00;99.90;;;;;;5069766;28;20101;-62
2020/12/14 04:02:23;;;;;;;12.32;6.20;;;8.00;99.90;;;;;;5070386;28;20221;-64
2020/12/14 04:04:49;;;;;;;9.13;5.90;;;8.00;99.90;;;;;;5070013;28;20028;-64
2020/12/14 04:07:15;;;;;;;11.93;6.90;;;8.00;99.90;;;;;;5069301;28;20151;-63
2020/12/14 04:09:41;;;;;;;12.18;6.05;;;8.00;99.90;;;;;;5070128;28;20491;-64
2020/12/14 04:12:07;;;;;;;9.48;6.05;;;8.00;99.90;;;;;;5070511;28;20034;-63
2020/12/14 04:14:32;;;;;;;13.43;6.38;;;8.00;99.90;;;;;;5068801;28;20108;-64
2020/12/14 04:16:58;;;;;;;9.25;5.68;;;8.10;99.90;;;;;;5062709;28;20053;-63
2020/12/14 04:19:23;;;;;;;9.70;6.50;;;8.00;99.90;;;;;;5063049;28;20035;-65
2020/12/14 04:21:50;;;;;;;15.23;7.13;;;8.00;99.90;;;;;;5065361;28;20028;-65
2020/12/14 04:24:17;;;;;;;16.25;6.38;;;8.10;99.90;;;;;;5031767;28;20539;-64
2020/12/14 04:26:42;;;;;;;13.85;6.72;;;8.10;99.90;;;;;;5065055;28;20991;-65
2020/12/14 04:29:08;;;;;;;11.32;7.13;;;8.10;99.90;;;;;;5063223;28;20028;-64
2020/12/14 04:31:34;;;;;;;10.15;6.85;;;8.10;99.90;;;;;;5064108;28;20086;-63
2020/12/14 04:34:03;;;;;;;14.55;6.55;;;8.10;99.90;;;;;;5069496;28;20456;-62
2020/12/14 04:36:29;;;;;;;10.80;7.10;;;8.10;99.90;;;;;;5070639;28;20539;-65
2020/12/14 04:38:55;;;;;;;12.50;7.45;;;8.10;99.90;;;;;;5070208;28;20021;-65
2020/12/14 04:41:22;;;;;;;9.52;6.85;;;8.20;99.90;;;;;;5070949;28;20028;-64
2020/12/14 04:43:51;;;;;;;11.48;7.90;;;8.20;99.90;;;;;;5068059;28;20113;-64
2020/12/14 04:46:19;;;;;;;15.38;7.28;;;8.30;99.90;;;;;;5070237;28;20136;-65
2020/12/14 04:48:45;;;;;;;12.50;6.80;;;8.30;99.90;;;;;;5068849;28;20032;-64
2020/12/14 04:51:11;;;;;;;9.48;7.03;;;8.30;99.90;;;;;;5068382;28;20025;-63
2020/12/14 04:53:42;;;;;;;15.52;5.90;;;8.30;99.90;;;;;;5069400;28;20021;-64
2020/12/14 04:56:09;;;;;;;13.70;6.35;;;8.30;99.90;;;;;;5068517;28;20513;-64
2020/12/14 04:58:37;;;;;;;6.75;5.90;;;8.30;99.90;;;;;;5070285;28;20040;-65
2020/12/14 05:01:03;;;;;;;8.88;6.25;;;8.40;99.90;;;;;;5071685;28;20402;-65
2020/12/14 05:03:29;;;;;;;9.20;5.95;;;8.40;99.90;;;;;;5069285;28;20025;-64
2020/12/14 05:05:56;;;;;;;12.15;5.97;;;8.40;99.90;;;;;;5068299;28;20032;-64
2020/12/14 05:08:29;;;;;;;16.10;7.15;;;8.50;99.90;;;;;;5069353;28;20024;-64
2020/12/14 05:10:55;;;;;;;9.55;6.80;;;8.50;99.90;;;;;;5066932;28;20766;-64
2020/12/14 05:13:28;;;;;;;12.77;6.65;;;8.50;99.90;;;;;;5067231;28;20088;-65
2020/12/14 05:15:54;;;;;;;9.90;6.50;;;8.50;99.90;;;;;;5076260;22;20461;-59
2020/12/14 05:18:23;;;;;;;8.30;5.82;;;8.50;99.90;;;;;;5071670;28;20041;-59
2020/12/14 05:21:00;;;;;;;7.78;6.35;;;8.60;99.90;;;;;;5067949;28;20024;-59
2020/12/14 05:23:27;;;;;;;12.48;6.15;;;8.60;99.90;;;;;;5062323;28;20029;-60
2020/12/14 05:26:06;;;;;;;8.05;5.93;;;8.60;99.90;;;;;;5067126;28;20155;-59
2020/12/14 05:28:31;;;;;;;10.65;6.32;;;8.70;99.90;;;;;;5069218;28;20024;-61
2020/12/14 05:30:57;;;;;;;10.80;6.18;;;8.70;99.90;;;;;;5072816;28;20020;-60
2020/12/14 05:33:25;;;;;;;9.95;6.05;;;8.60;99.90;;;;;;5066190;28;20063;-60
2020/12/14 05:35:51;;;;;;;8.75;6.07;;;8.60;99.90;;;;;;5062797;28;20461;-60
2020/12/14 05:38:28;;;;;;;12.05;5.80;;;8.70;99.90;;;;;;5067131;28;20490;-60
2020/12/14 05:40:58;;;;;;;11.68;5.22;;;8.70;99.90;;;;;;5071843;28;20558;-60
2020/12/14 05:43:28;;;;;;;7.85;5.93;;;8.70;99.90;;;;;;5059038;28;20021;-59
2020/12/14 05:45:55;;;;;;;7.40;5.78;;;8.70;99.90;;;;;;5060200;28;20387;-60
2020/12/14 05:48:31;;;;;;;6.50;5.15;;;8.80;99.90;;;;;;5059439;28;20495;-59
2020/12/14 05:51:08;;;;;;;9.95;5.25;;;8.80;99.90;;;;;;5044928;28;20033;-62
2020/12/14 05:53:34;;;;;;;14.60;6.18;;;8.80;99.90;;;;;;5065381;28;20020;-60
2020/12/14 05:56:00;;;;;;;10.25;5.75;;;8.80;99.90;;;;;;5062881;28;20035;-59
2020/12/14 05:58:29;;;;;;;13.90;6.15;;;8.80;99.90;;;;;;5057335;28;20074;-60
2020/12/14 06:00:55;;;;;;;8.30;4.97;;;8.80;99.90;;;;;;5068551;28;20415;-59
2020/12/14 06:03:23;;;;;;;8.23;4.85;;;8.90;99.90;;;;;;5069211;28;20029;-60
2020/12/14 06:05:56;;;;;;;11.52;5.43;;;8.90;99.90;;;;;;5057233;28;20056;-59
2020/12/14 06:08:41;;;;;;;9.60;6.07;;;8.90;99.90;;;;;;5073789;28;20040;-58
2020/12/14 06:11:07;;;;;;;8.82;5.70;;;8.90;99.90;;;;;;5068520;28;20028;-58
2020/12/14 06:13:32;;;;;;;9.57;5.47;;;8.90;99.90;;;;;;5066820;28;20052;-58
2020/12/14 06:16:02;;;;;;;8.32;5.68;;;8.90;99.90;;;;;;5063580;28;20431;-58
2020/12/14 06:18:36;;;;;;;11.30;6.10;;;9.00;99.90;;;;;;5065969;28;20032;-61
2020/12/14 06:21:02;;;;;;;10.45;5.22;;;8.90;99.90;;;;;;5062192;28;20570;-58
2020/12/14 06:23:39;;;;;;;6.78;5.28;;;9.00;99.90;;;;;;5061698;28;20048;-59
2020/12/14 06:26:06;;;;;;;9.20;5.97;;;9.00;99.90;;;;;;5057300;28;20032;-60
2020/12/14 06:28:34;;;;;;;6.80;5.10;;;9.00;99.90;;;;;;5062772;28;20482;-60
2020/12/14 06:31:00;;;;;;;11.50;6.70;;;9.00;99.90;;;;;;5069699;28;20127;-59
2020/12/14 06:33:35;;;;;;;8.32;5.93;;;9.00;99.90;;;;;;5070145;28;20105;-60
2020/12/14 06:36:24;;;;;;;8.98;7.05;;;9.00;99.90;;;;;;5060447;28;20079;-60
2020/12/14 06:38:52;;;;;;;13.82;6.80;;;9.10;99.90;;;;;;5066026;28;20071;-59
2020/12/14 06:41:20;;;;;;;9.07;6.47;;;9.10;99.90;;;;;;5068535;28;20063;-60
2020/12/14 06:43:47;;;;;;;10.35;6.32;;;9.10;99.90;;;;;;5049343;28;20025;-60
2020/12/14 06:46:14;;;;;;;9.45;6.40;;;9.10;99.90;;;;;;5062455;28;20020;-60
2020/12/14 06:48:44;;;;;;;9.98;6.07;;;9.20;99.90;;;;;;5070773;28;20131;-60
2020/12/14 06:51:15;;;;;;;12.23;6.35;;;9.20;99.90;;;;;;5056469;28;20498;-60
2020/12/14 06:53:41;;;;;;;8.57;6.20;;;9.20;99.90;;;;;;5061589;28;20081;-60
2020/12/14 06:56:08;;;;;;;12.45;6.43;;;9.30;99.90;;;;;;5046367;28;20117;-60
2020/12/14 06:58:42;;;;;;;10.77;6.38;;;9.30;99.90;;;;;;5072201;28;20028;-60
2020/12/14 07:01:30;;;;;;;11.50;6.95;;;9.30;99.90;;;;;;5073440;28;20020;-60
2020/12/14 07:03:56;;;;;;;15.25;6.93;;;9.30;99.90;;;;;;5061823;28;20052;-62
2020/12/14 07:06:26;;;;;;;8.23;6.60;;;9.30;99.90;;;;;;5070676;28;20032;-60
2020/12/14 07:08:52;;;;;;;10.32;6.35;;;9.30;99.90;;;;;;5071232;28;20028;-61
2020/12/14 07:11:20;;;;;;;12.57;6.20;;;9.40;99.90;;;;;;5063554;28;20033;-60
2020/12/14 07:13:47;;;;;;;12.00;6.95;;;9.40;99.90;;;;;;5069442;28;20040;-61
2020/12/14 07:16:13;;;;;;;10.25;7.25;;;9.40;99.90;;;;;;5069446;28;20072;-59
2020/12/14 07:18:41;;;;;;;8.73;7.30;;;9.40;99.90;;;;;;5067533;28;20028;-59
2020/12/14 07:21:14;;;;;;;11.65;6.57;;;9.40;99.90;;;;;;5067992;28;20024;-60
2020/12/14 07:23:42;;;;;;;8.18;6.05;;;9.40;99.90;;;;;;5056068;28;20035;-61
2020/12/14 07:26:10;;;;;;;10.07;6.18;;;9.40;99.90;;;;;;5062944;28;20037;-61
2020/12/14 07:28:39;;;;;;;8.38;5.85;;;9.40;99.90;;;;;;5068534;28;20130;-60
2020/12/14 07:31:15;;;;;;;12.50;6.35;;;9.40;99.90;;;;;;5070068;28;20035;-60
2020/12/14 07:33:57;;;;;;;9.40;6.50;;;9.50;99.90;;;;;;5068325;28;20020;-61
2020/12/14 07:36:25;;;;;;;6.85;5.40;;;9.50;99.90;;;;;;5063862;28;20020;-60
2020/12/14 07:38:53;;;;;;;10.30;7.95;;;9.60;99.90;;;;;;5063199;28;20497;-60
2020/12/14 07:41:19;;;;;;;10.40;7.40;;;9.60;99.90;;;;;;5066075;28;20028;-60
2020/12/14 07:43:47;;;;;;;11.57;7.97;;;9.60;99.90;;;;;;5060939;28;20064;-61
2020/12/14 07:46:39;;;;;;;13.27;7.78;;;9.60;99.90;;;;;;5061531;28;20027;-61
2020/12/14 07:49:09;;;;;;;11.07;7.90;;;9.60;99.90;;;;;;5069085;28;20554;-60
2020/12/14 07:51:44;;;;;;;10.73;8.55;;;9.60;99.90;;;;;;5067320;28;20475;-60
2020/12/14 07:54:18;;;;;;;14.70;9.18;;;9.70;99.90;;;;;;5067921;28;20020;-59
2020/12/14 07:56:45;;;;;;;15.55;8.18;;;9.70;99.90;;;;;;5070701;28;20141;-60
2020/12/14 07:59:25;;;;;;;9.55;7.63;;;9.80;99.90;;;;;;5064897;28;20021;-60
2020/12/14 08:01:52;;;;;;;10.10;8.60;;;9.80;99.90;;;;;;5070095;28;20584;-60
2020/12/14 08:04:37;;;;;;;12.52;8.70;;;9.80;99.90;;;;;;5070052;28;20095;-61
2020/12/14 08:07:03;;;;;;;11.07;8.38;;;9.80;99.90;;;;;;5071059;28;20043;-61
2020/12/14 08:09:39;;;;;;;11.35;8.38;;;9.90;99.90;;;;;;5065248;28;20012;-59
2020/12/14 08:12:06;;;;;;;9.57;8.02;;;9.90;99.90;;;;;;5071761;28;20130;-60
2020/12/14 08:14:33;;;;;;;15.32;8.52;;;9.90;99.90;;;;;;5068101;28;20017;-59
2020/12/14 08:16:59;;;;;;;10.70;7.97;;;9.90;99.90;;;;;;5069526;28;20418;-60
2020/12/14 08:19:25;;;;;;;13.68;9.10;;;9.90;99.90;;;;;;5073851;28;20088;-59
2020/12/14 08:22:01;;;;;;;9.68;8.25;;;9.90;99.90;;;;;;5075394;28;20067;-60
2020/12/14 08:24:27;;;;;;;10.32;7.68;;;10.00;99.90;;;;;;5078007;28;20024;-58
2020/12/14 08:27:04;;;;;;;10.27;7.50;;;10.00;99.90;;;;;;5075134;28;20074;-60
2020/12/14 08:29:31;;;;;;;9.65;7.07;;;10.00;99.90;;;;;;5054691;28;20382;-60
2020/12/14 08:31:58;;;;;;;10.77;7.60;;;10.00;99.90;;;;;;5068988;28;20024;-59
2020/12/14 08:34:28;;;;;;;9.38;7.13;;;10.00;99.90;;;;;;5067646;28;20032;-61
2020/12/14 08:36:54;;;;;;;10.50;7.28;;;10.10;99.90;;;;;;5073651;28;20259;-60
2020/12/14 08:39:19;;;;;;;9.93;6.68;;;10.10;99.90;;;;;;5072137;28;20177;-60
2020/12/14 08:41:45;;;;;;;12.38;7.03;;;10.10;99.90;;;;;;5068897;28;20015;-60
2020/12/14 08:44:18;;;;;;;8.30;7.38;;;10.10;99.90;;;;;;5066071;28;20029;-60
2020/12/14 08:46:44;;;;;;;9.88;6.90;;;10.20;99.90;;;;;;5066162;28;20036;-60
2020/12/14 08:49:09;;;;;;;8.75;6.93;;;10.20;99.90;;;;;;5062068;28;20483;-60
2020/12/14 08:51:35;;;;;;;7.43;6.72;;;10.30;99.90;;;;;;5055955;28;20017;-60
2020/12/14 08:54:12;;;;;;;8.18;6.47;;;10.30;99.90;;;;;;5067060;28;20025;-61
2020/12/14 08:56:38;;;;;;;9.63;6.82;;;10.30;99.90;;;;;;5069041;28;20036;-60
2020/12/14 08:59:04;;;;;;;7.68;6.70;;;10.30;99.90;;;;;;5051911;28;20025;-60
2020/12/14 09:01:32;;;;;;;7.32;6.30;;;10.40;99.90;;;;;;5070541;28;20465;-61
2020/12/14 09:03:59;;;;;;;7.20;6.50;;;10.40;99.90;;;;;;5053146;28;20045;-61
2020/12/14 09:06:35;;;;;;;5.80;5.20;;;10.40;99.90;;;;;;5062452;28;20017;-60
2020/12/14 09:09:04;;;;;;;6.60;5.88;;;10.40;99.90;;;;;;5076564;28;20031;-60
2020/12/14 09:11:31;;;;;;;6.97;5.50;;;10.40;99.90;;;;;;5043912;28;20020;-60
2020/12/14 09:14:01;;;;;;;7.95;6.15;;;10.50;99.90;;;;;;5075446;28;20556;-59
2020/12/14 09:16:28;;;;;;;12.30;6.20;;;10.50;99.90;;;;;;5061016;28;20044;-58
2020/12/14 09:18:54;;;;;;;6.70;5.20;;;10.50;99.90;;;;;;5055176;28;20102;-59
2020/12/14 09:21:19;;;;;;;6.63;4.80;;;10.60;99.90;;;;;;5070387;28;20390;-58
2020/12/14 09:24:05;;;;;;;5.28;4.22;;;10.60;99.90;;;;;;5074559;28;20028;-60
2020/12/14 09:26:31;;;;;;;6.22;4.50;;;10.70;99.90;;;;;;5057103;28;20027;-60
2020/12/14 09:28:56;;;;;;;4.47;4.07;;;10.70;99.90;;;;;;5075052;28;20032;-60
2020/12/14 09:31:22;;;;;;;3.92;3.55;;;10.70;99.90;;;;;;5067584;28;20404;-61
2020/12/14 09:33:47;;;;;;;4.03;3.72;;;10.70;99.90;;;;;;5065999;28;20024;-59
2020/12/14 09:36:16;;;;;;;4.72;3.58;;;10.70;99.90;;;;;;5073399;28;20108;-59
2020/12/14 09:38:42;;;;;;;4.28;3.85;;;10.70;99.90;;;;;;5072454;28;20017;-58
2020/12/14 09:41:08;;;;;;;4.53;4.00;;;10.70;99.90;;;;;;5074794;28;20028;-61
2020/12/14 09:43:33;;;;;;;4.68;4.13;;;10.70;99.90;;;;;;5073016;28;20482;-61
2020/12/14 09:45:59;;;;;;;5.75;4.38;;;10.80;99.90;;;;;;5073765;28;20099;-60
2020/12/14 09:48:25;;;;;;;4.55;4.07;;;10.80;99.90;;;;;;5058750;28;20025;-59
2020/12/14 09:50:51;;;;;;;6.78;4.15;;;10.80;99.90;;;;;;5061269;28;20560;-60
2020/12/14 09:53:16;;;;;;;9.80;5.57;;;10.80;99.90;;;;;;5035278;28;20029;-60
2020/12/14 09:55:43;;;;;;;7.45;4.55;;;10.90;99.90;;;;;;5060750;28;20031;-61
2020/12/14 09:58:08;;;;;;;7.50;4.28;;;10.90;99.90;;;;;;5070446;28;20035;-60
2020/12/14 10:00:34;;;;;;;6.00;4.43;;;10.90;99.90;;;;;;5056694;28;20410;-62
2020/12/14 10:03:00;;;;;;;6.95;4.65;;;10.90;99.90;;;;;;5074137;28;20064;-60
2020/12/14 10:05:25;;;;;;;6.88;4.50;;;10.90;99.90;;;;;;5073922;28;20425;-59
2020/12/14 10:07:51;;;;;;;5.55;4.43;;;10.90;99.90;;;;;;5072506;28;20029;-62
2020/12/14 10:10:16;;;;;;;4.93;4.30;;;10.90;99.90;;;;;;5056838;28;20029;-60
2020/12/14 10:12:42;;;;;;;4.30;3.55;;;10.90;99.90;;;;;;5056927;28;20013;-61
2020/12/14 10:15:09;;;;;;;5.57;5.07;;;10.90;99.90;;;;;;5070117;28;20020;-60
2020/12/14 10:17:36;;;;;;;4.95;4.45;;;10.90;99.90;;;;;;5072855;28;20491;-59
2020/12/14 10:20:05;;;;;;;8.65;4.82;;;10.90;99.90;;;;;;5070798;28;20475;-61
2020/12/14 10:22:31;;;;;;;5.47;4.32;;;10.90;99.90;;;;;;5073322;28;20107;-60
2020/12/14 10:24:57;;;;;;;7.18;4.63;;;10.90;99.90;;;;;;5073283;28;20024;-61
2020/12/14 10:27:23;;;;;;;6.10;4.35;;;10.90;99.90;;;;;;5071038;28;20024;-59
2020/12/14 10:29:48;;;;;;;5.15;4.07;;;10.90;99.90;;;;;;5071758;28;20074;-60
2020/12/14 10:32:14;;;;;;;6.72;4.95;;;10.90;99.90;;;;;;5069650;28;20107;-59
2020/12/14 10:34:40;;;;;;;4.63;4.13;;;11.00;99.90;;;;;;5063915;28;20032;-59
2020/12/14 10:37:06;;;;;;;5.30;4.25;;;10.90;99.90;;;;;;5067673;28;20024;-62
2020/12/14 10:39:31;;;;;;;6.82;4.40;;;10.90;99.90;;;;;;5072854;28;20024;-60
2020/12/14 10:41:57;;;;;;;8.70;4.40;;;10.90;99.90;;;;;;5072193;28;20056;-60
2020/12/14 10:44:22;;;;;;;4.32;4.03;;;11.00;99.90;;;;;;5072066;28;20033;-59
2020/12/14 10:46:48;;;;;;;6.68;4.70;;;11.10;99.90;;;;;;5068839;28;20013;-61
2020/12/14 10:49:14;;;;;;;9.40;5.07;;;11.10;99.90;;;;;;5062162;28;20056;-60
2020/12/14 10:51:39;;;;;;;5.70;4.20;;;11.20;99.90;;;;;;5070315;28;20028;-59
2020/12/14 10:54:05;;;;;;;7.45;4.80;;;11.20;99.90;;;;;;5062572;28;20025;-59
2020/12/14 10:56:30;;;;;;;5.38;4.85;;;11.20;99.90;;;;;;5066894;28;20538;-60
2020/12/14 10:58:56;;;;;;;5.75;4.90;;;11.10;99.90;;;;;;5056590;28;20232;-61
2020/12/14 11:01:22;;;;;;;8.43;4.75;;;11.10;99.90;;;;;;5036834;28;20020;-60
2020/12/14 11:03:48;;;;;;;6.07;4.13;;;11.10;99.90;;;;;;5046506;28;20022;-59
2020/12/14 11:06:13;;;;;;;5.68;4.25;;;11.10;99.90;;;;;;5066262;28;20498;-60
2020/12/14 11:08:39;;;;;;;7.88;4.68;;;11.00;99.90;;;;;;5071539;28;20024;-60
2020/12/14 11:11:05;;;;;;;4.22;3.83;;;11.10;99.90;;;;;;5064963;28;20094;-60
2020/12/14 11:13:30;;;;;;;5.45;4.47;;;11.00;99.90;;;;;;5071206;28;20020;-63
2020/12/14 11:15:56;;;;;;;6.95;4.82;;;11.00;99.90;;;;;;5063763;23;20044;-65
2020/12/14 11:18:21;;;;;;;5.50;4.20;;;11.00;99.90;;;;;;5072258;28;20023;-65
2020/12/14 11:20:47;;;;;;;5.72;4.32;;;11.10;99.90;;;;;;5073959;28;20031;-65
2020/12/14 11:23:14;;;;;;;6.55;4.43;;;11.10;99.90;;;;;;5075093;28;20106;-65
2020/12/14 11:25:40;;;;;;;8.30;4.55;;;11.10;99.90;;;;;;5070163;28;20811;-66
2020/12/14 11:28:05;;;;;;;5.50;4.05;;;11.10;99.90;;;;;;5066777;28;20060;-65
2020/12/14 11:30:31;;;;;;;10.90;4.72;;;11.10;99.90;;;;;;5060047;28;20009;-65
2020/12/14 11:32:56;;;;;;;7.22;4.50;;;11.10;99.90;;;;;;5070950;28;20013;-67
2020/12/14 11:35:22;;;;;;;4.35;3.95;;;11.20;99.90;;;;;;5067843;28;20021;-65
2020/12/14 11:37:47;;;;;;;4.70;4.30;;;11.10;99.90;;;;;;5079030;28;20028;-65
2020/12/14 11:40:14;;;;;;;7.72;4.13;;;11.20;99.90;;;;;;5072383;28;20390;-66
2020/12/14 11:42:39;;;;;;;4.65;4.25;;;11.10;99.90;;;;;;5057431;28;20102;-65
2020/12/14 11:45:09;;;;;;;5.30;4.13;;;11.10;99.90;;;;;;5063320;28;20032;-65
2020/12/14 11:47:34;;;;;;;6.00;4.18;;;11.20;99.90;;;;;;5063572;28;20028;-66
2020/12/14 11:50:00;;;;;;;10.23;5.18;;;11.20;99.90;;;;;;5074170;28;20020;-65
2020/12/14 11:52:25;;;;;;;6.40;4.00;;;11.20;99.90;;;;;;5070316;28;20023;-65
2020/12/14 11:54:51;;;;;;;4.88;3.80;;;11.20;99.90;;;;;;5073220;28;20025;-65
2020/12/14 11:57:16;;;;;;;9.10;4.50;;;11.30;99.90;;;;;;5067948;28;20128;-66
2020/12/14 11:59:42;;;;;;;9.88;4.10;;;11.50;99.90;;;;;;5055983;28;20028;-65
2020/12/14 12:02:07;;;;;;;5.70;3.78;;;11.40;99.90;;;;;;5066154;28;20418;-65
2020/12/14 12:04:34;;;;;;;5.68;3.38;;;11.40;99.90;;;;;;5068291;28;20497;-64
2020/12/14 12:07:04;;;;;;;6.25;4.40;;;11.40;99.90;;;;;;5082135;28;20132;-65
2020/12/14 12:09:29;;;;;;;7.75;4.10;;;11.30;99.90;;;;;;5063570;28;20017;-65
2020/12/14 12:11:55;;;;;;;4.75;3.60;;;11.30;99.90;;;;;;5072228;28;20039;-66
2020/12/14 12:14:20;;;;;;;8.15;3.97;;;11.30;99.90;;;;;;5072510;28;20021;-65
2020/12/14 12:16:46;;;;;;;6.93;4.43;;;11.30;99.90;;;;;;5058805;28;20099;-65
2020/12/14 12:19:14;;;;;;;6.75;4.10;;;11.30;99.90;;;;;;5059694;28;20433;-65
2020/12/14 12:21:39;;;;;;;6.13;3.88;;;11.20;99.90;;;;;;5048174;28;20025;-66
2020/12/14 12:24:05;;;;;;;7.15;4.47;;;11.20;99.90;;;;;;5047880;28;20025;-64
2020/12/14 12:26:31;;;;;;;7.93;4.50;;;11.30;99.90;;;;;;5055870;28;20044;-67
2020/12/14 12:28:56;;;;;;;8.32;4.85;;;11.20;99.90;;;;;;5054549;28;20491;-66
2020/12/14 12:31:22;;;;;;;7.68;4.82;;;11.20;99.90;;;;;;5056610;28;20071;-65
2020/12/14 12:33:47;;;;;;;5.70;4.50;;;11.20;99.90;;;;;;5045610;28;20017;-65
2020/12/14 12:36:13;;;;;;;5.18;4.30;;;11.20;99.90;;;;;;5058096;28;20056;-65
2020/12/14 12:38:38;;;;;;;7.72;4.63;;;11.20;99.90;;;;;;5059156;28;20402;-66
2020/12/14 12:41:04;;;;;;;10.23;4.97;;;11.20;99.90;;;;;;5056577;28;20036;-65
2020/12/14 12:43:30;;;;;;;7.80;4.68;;;11.20;99.90;;;;;;5038682;28;20355;-65
2020/12/14 12:45:56;;;;;;;6.60;4.90;;;11.20;99.90;;;;;;5046053;28;20021;-65
2020/12/14 12:48:21;;;;;;;6.50;5.00;;;11.20;99.90;;;;;;5026939;28;20498;-65
2020/12/14 12:50:53;;;;;;;12.90;5.68;;;11.30;99.90;;;;;;5045452;28;20021;-66